createdAt,value
2023-08-20T00:03:00.247Z,4.07
2023-08-20T00:08:01.688Z,4.15
2023-08-20T00:13:03.418Z,4.50
2023-08-20T00:18:05.451Z,4.50
2023-08-20T00:23:07.531Z,3.77
2023-08-20T00:28:09.433Z,4.50
2023-08-20T00:33:10.991Z,4.00
2023-08-20T00:38:12.507Z,3.53
2023-08-20T00:43:14.049Z,4.60
2023-08-20T00:48:16.992Z,4.55
2023-08-20T00:53:18.793Z,4.68
2023-08-20T00:58:20.381Z,4.68
2023-08-20T01:03:22.022Z,4.15
2023-08-20T01:08:26.187Z,4.20
2023-08-20T01:13:27.720Z,4.97
2023-08-20T01:18:29.461Z,5.20
2023-08-20T01:23:49.341Z,4.78
2023-08-20T01:28:51.852Z,5.05
2023-08-20T01:33:54.961Z,4.65
2023-08-20T01:38:58.156Z,5.28
2023-08-20T01:43:59.663Z,5.05
2023-08-20T01:49:01.121Z,4.68
2023-08-20T01:54:03.329Z,5.00
2023-08-20T01:59:05.004Z,5.18
2023-08-20T02:04:06.496Z,5.43
2023-08-20T02:09:07.995Z,4.30
2023-08-20T02:14:09.409Z,4.78
2023-08-20T02:19:11.256Z,4.53
2023-08-20T02:24:12.722Z,4.88
2023-08-20T02:29:14.125Z,5.15
2023-08-20T02:34:15.615Z,5.20
2023-08-20T02:39:18.173Z,4.57
2023-08-20T02:44:19.778Z,5.32
2023-08-20T02:49:21.308Z,4.85
2023-08-20T02:54:22.918Z,5.78
2023-08-20T02:59:24.403Z,6.03
2023-08-20T03:04:26.065Z,5.32
2023-08-20T03:09:27.576Z,5.53
2023-08-20T03:14:29.127Z,6.32
2023-08-20T03:19:38.138Z,6.25
2023-08-20T03:24:39.634Z,5.95
2023-08-20T03:29:41.185Z,5.88
2023-08-20T03:34:42.628Z,6.07
2023-08-20T03:39:44.194Z,5.88
2023-08-20T03:44:45.829Z,5.53
2023-08-20T03:49:51.763Z,6.05
2023-08-20T03:54:53.353Z,5.70
2023-08-20T03:59:54.877Z,5.60
2023-08-20T04:04:58.927Z,5.57
2023-08-20T04:10:00.429Z,6.63
2023-08-20T04:15:01.918Z,6.30
2023-08-20T04:20:06.675Z,6.15
2023-08-20T04:25:08.913Z,6.03
2023-08-20T04:30:11.151Z,5.80
2023-08-20T04:35:12.546Z,5.73
2023-08-20T04:40:14.963Z,6.13
2023-08-20T04:45:20.479Z,6.90
2023-08-20T04:50:22.230Z,6.43
2023-08-20T04:55:23.952Z,6.25
2023-08-20T05:00:25.756Z,5.97
2023-08-20T05:05:27.164Z,6.85
2023-08-20T05:10:28.539Z,6.22
2023-08-20T05:15:29.930Z,5.97
2023-08-20T05:20:31.680Z,6.88
2023-08-20T05:25:33.020Z,6.68
2023-08-20T05:30:35.434Z,6.50
2023-08-20T05:35:37.123Z,7.28
2023-08-20T05:40:38.856Z,7.75
2023-08-20T05:45:40.241Z,7.28
2023-08-20T05:50:41.632Z,8.10
2023-08-20T05:55:43.066Z,6.85
2023-08-20T06:00:44.546Z,6.90
2023-08-20T06:05:45.920Z,7.20
2023-08-20T06:10:47.391Z,7.60
2023-08-20T06:15:48.925Z,7.30
2023-08-20T06:20:50.657Z,7.82
2023-08-20T06:25:52.419Z,7.35
2023-08-20T06:30:56.372Z,6.15
2023-08-20T06:35:57.967Z,6.80
2023-08-20T06:40:59.293Z,6.75
2023-08-20T06:46:00.842Z,6.38
2023-08-20T06:51:18.551Z,6.25
2023-08-20T06:56:20.330Z,6.60
2023-08-20T07:01:21.777Z,6.53
2023-08-20T07:06:23.354Z,6.22
2023-08-20T07:11:24.872Z,6.25
2023-08-20T07:16:26.332Z,6.25
2023-08-20T07:21:28.023Z,5.53
2023-08-20T07:26:30.827Z,6.88
2023-08-20T07:36:36.763Z,6.60
2023-08-20T07:41:38.347Z,6.13
2023-08-20T07:46:39.810Z,7.22
2023-08-20T07:51:41.239Z,6.50
2023-08-20T07:56:42.720Z,6.50
2023-08-20T08:01:44.237Z,7.38
2023-08-20T08:06:45.666Z,6.65
2023-08-20T08:11:47.407Z,6.32
2023-08-20T08:16:49.684Z,6.63
2023-08-20T08:21:51.431Z,7.18
2023-08-20T08:26:52.860Z,7.67
2023-08-20T08:31:54.486Z,8.00
2023-08-20T08:36:56.032Z,7.65
2023-08-20T08:42:03.671Z,6.80
2023-08-20T08:47:06.213Z,7.60
2023-08-20T08:57:10.811Z,8.18
2023-08-20T09:02:14.025Z,7.03
2023-08-20T09:07:16.746Z,8.25
2023-08-20T09:12:19.822Z,8.40
2023-08-20T09:17:22.264Z,8.35
2023-08-20T09:22:24.097Z,7.80
2023-08-20T09:27:25.609Z,9.07
2023-08-20T09:32:28.570Z,8.68
2023-08-20T09:37:29.985Z,7.43
2023-08-20T09:42:34.229Z,8.00
2023-08-20T09:47:38.768Z,7.32
2023-08-20T09:52:43.445Z,7.45
2023-08-20T09:57:46.983Z,7.43
2023-08-20T10:02:50.599Z,7.85
2023-08-20T10:07:52.540Z,7.70
2023-08-20T10:12:54.045Z,7.53
2023-08-20T10:17:58.408Z,7.38
2023-08-20T10:23:04.441Z,7.00
2023-08-20T10:28:23.595Z,7.28
2023-08-20T10:33:25.186Z,8.57
2023-08-20T10:38:26.729Z,5.63
2023-08-20T10:43:36.418Z,7.25
2023-08-20T10:48:40.390Z,6.50
2023-08-20T10:53:44.314Z,5.10
2023-08-20T10:58:48.077Z,5.10
2023-08-20T11:03:51.572Z,5.53
2023-08-20T11:08:52.998Z,5.03
2023-08-20T11:13:54.414Z,5.30
2023-08-20T11:18:55.856Z,5.20
2023-08-20T11:28:59.729Z,4.85
2023-08-20T11:34:03.261Z,3.63
2023-08-20T11:39:04.992Z,4.22
2023-08-20T11:44:06.759Z,3.55
2023-08-20T11:49:10.105Z,4.25
2023-08-20T11:54:14.702Z,3.90
2023-08-20T11:59:17.684Z,3.67
2023-08-20T12:04:19.257Z,3.88
2023-08-20T12:09:22.984Z,4.43
2023-08-20T12:14:25.313Z,4.30
2023-08-20T12:19:27.218Z,4.88
2023-08-20T12:24:28.728Z,4.05
2023-08-20T12:29:30.463Z,3.88
2023-08-20T12:34:32.199Z,4.43
2023-08-20T12:39:33.761Z,3.08
2023-08-20T12:44:35.164Z,3.40
2023-08-20T12:49:36.809Z,2.90
2023-08-20T12:54:38.340Z,2.95
2023-08-20T12:59:39.768Z,1.70
2023-08-20T13:04:43.691Z,1.42
2023-08-20T13:09:46.285Z,1.80
2023-08-20T13:14:47.888Z,2.67
2023-08-20T13:19:49.237Z,2.58
2023-08-20T13:24:50.673Z,2.47
2023-08-20T13:29:52.210Z,4.75
2023-08-20T13:34:53.726Z,3.55
2023-08-20T13:39:55.084Z,2.80
2023-08-20T13:44:56.481Z,2.83
2023-08-20T13:49:58.335Z,3.00
2023-08-20T13:54:59.855Z,2.15
2023-08-20T14:00:01.772Z,3.13
2023-08-20T14:05:05.285Z,3.10
2023-08-20T14:10:07.399Z,2.83
2023-08-20T14:15:10.450Z,2.70
2023-08-20T14:20:12.694Z,3.03
2023-08-20T14:25:14.762Z,3.00
2023-08-20T14:30:16.216Z,3.10
2023-08-20T14:40:19.205Z,2.30
2023-08-20T14:50:22.389Z,3.58
2023-08-20T14:55:23.804Z,3.70
2023-08-20T15:00:25.785Z,3.15
2023-08-20T15:05:27.747Z,3.65
2023-08-20T15:10:29.402Z,4.07
2023-08-20T15:15:32.069Z,3.40
2023-08-20T15:20:33.480Z,3.50
2023-08-20T15:25:35.052Z,3.45
2023-08-20T15:30:36.581Z,3.65
2023-08-20T15:35:38.046Z,3.70
2023-08-20T15:40:39.738Z,3.95
2023-08-20T15:50:42.631Z,4.10
2023-08-20T15:55:44.358Z,4.78
2023-08-20T16:05:47.127Z,4.00
2023-08-20T16:10:48.815Z,4.80
2023-08-20T16:15:50.311Z,4.32
2023-08-20T16:20:51.954Z,3.75
2023-08-20T16:25:53.285Z,4.20
2023-08-20T16:30:54.706Z,4.32
2023-08-20T16:35:56.083Z,3.65
2023-08-20T16:41:00.694Z,4.05
2023-08-20T16:46:02.276Z,4.18
2023-08-20T16:51:04.130Z,4.20
2023-08-20T17:01:07.037Z,4.23
2023-08-20T17:06:08.500Z,4.53
2023-08-20T17:11:11.509Z,4.10
2023-08-20T17:16:13.552Z,4.63
2023-08-20T17:26:16.971Z,4.27
2023-08-20T17:31:18.406Z,4.13
2023-08-20T17:36:20.130Z,4.35
2023-08-20T17:41:21.551Z,4.20
2023-08-20T17:46:23.228Z,4.80
2023-08-20T17:51:24.586Z,4.10
2023-08-20T17:56:26.266Z,4.50
2023-08-20T18:01:28.232Z,4.53
2023-08-20T18:11:31.266Z,3.95
2023-08-20T18:16:32.671Z,4.00
2023-08-20T18:21:34.662Z,4.70
2023-08-20T18:26:36.230Z,4.00
2023-08-20T18:31:37.645Z,3.88
2023-08-20T18:36:39.020Z,4.47
2023-08-20T18:41:40.464Z,4.80
2023-08-20T18:46:41.890Z,4.80
2023-08-20T18:51:43.379Z,4.50
2023-08-20T18:56:45.008Z,4.20
2023-08-20T19:01:49.545Z,3.65
2023-08-20T19:06:52.794Z,3.85
2023-08-20T19:11:57.098Z,3.90
2023-08-20T19:16:58.933Z,3.40
2023-08-20T19:22:00.350Z,3.42
2023-08-20T19:27:01.732Z,3.00
2023-08-20T19:32:03.317Z,3.90
2023-08-20T19:37:05.005Z,4.43
2023-08-20T19:42:08.883Z,3.35
2023-08-20T19:47:10.403Z,3.40
2023-08-20T19:52:11.855Z,3.70
2023-08-20T19:57:13.225Z,3.07
2023-08-20T20:02:14.837Z,3.10
2023-08-20T20:07:22.795Z,3.38
2023-08-20T20:12:24.820Z,3.40
2023-08-20T20:17:26.501Z,3.87
2023-08-20T20:22:28.335Z,3.40
2023-08-20T20:27:30.618Z,3.47
2023-08-20T20:42:37.802Z,3.80
2023-08-20T20:47:41.976Z,4.72
2023-08-20T20:52:44.039Z,4.50
2023-08-20T20:57:45.527Z,3.83
2023-08-20T21:02:47.625Z,3.50
2023-08-20T21:07:49.320Z,3.95
2023-08-20T21:12:50.740Z,3.33
2023-08-20T21:17:52.420Z,3.67
2023-08-20T21:22:55.390Z,7.00
2023-08-20T21:27:57.155Z,4.82
2023-08-20T21:32:58.526Z,3.50
2023-08-20T21:37:59.922Z,3.40
2023-08-20T21:43:01.330Z,3.15
2023-08-20T21:48:02.813Z,4.00
2023-08-20T21:53:04.622Z,3.28
2023-08-20T21:58:06.046Z,3.47
2023-08-20T22:03:07.645Z,4.28
2023-08-20T22:08:09.272Z,4.47
2023-08-20T22:13:10.680Z,4.35
2023-08-20T22:18:12.088Z,4.40
2023-08-20T22:23:14.950Z,4.38
2023-08-20T22:28:16.892Z,4.88
2023-08-20T22:33:18.338Z,4.47
2023-08-20T22:38:19.749Z,5.75
2023-08-20T22:43:21.468Z,5.15
2023-08-20T22:48:22.898Z,5.17
2023-08-20T22:53:24.512Z,5.30
2023-08-20T22:58:25.872Z,5.30
2023-08-20T23:03:27.243Z,6.40
2023-08-20T23:08:28.734Z,5.88
2023-08-20T23:13:30.127Z,5.88
2023-08-20T23:18:31.697Z,6.07
2023-08-20T23:23:33.767Z,6.35
2023-08-20T23:28:35.144Z,6.18
2023-08-20T23:33:36.652Z,5.93
2023-08-20T23:38:41.289Z,6.75
2023-08-20T23:43:43.315Z,6.35
2023-08-20T23:48:44.886Z,6.65
2023-08-20T23:53:46.245Z,6.85
2023-08-20T23:58:47.651Z,6.40
